EGKB METAR and TAF | Updated Today

EGKB METAR

London Biggin Hill Airport

Observation time: 15 min. ago

EGKB 251850Z 26009KT 230V290 9999 FEW035 15/08 Q1015

Need help? Read our tutorial on how to read METARs or read the parsed version below.

London Biggin Hill Airport (EGKB) METAR

  • Weather conditions on Wed, 25 May 2022 18:50:00 +0000 (15 min. ago):
  • Present conditions: Dry
  • Clouds: A few at 1067 meters
  • Visibility: Greater than 10 km
  • Wind: 260 degrees at 9 knots
  • Temperature: 15 celsius
  • Dew point: 8 celsius
  • Pressure: 1015 millibars
  • Remarks: None


Useful to know...

EGKB TAF

London Biggin Hill Airport

TAF EGKB 251655Z 2518/2522 26009KT 9999 SCT040
Observation time: 2:10 hr. ago
Need help? Read our tutorial on how to read TAFs or read the parsed version below.

Parsed version of TAF for London Biggin Hill Airport (EGKB)

  • From 25 May at 18:00 UTC, to day 25 of the month at 22:00 UTC
  • Clouds: Scattered at 1219 meters
  • Visibility: Greater than 10 km
  • Wind: 260 degrees at 9